sensor_id;sensor_type;location;lat;lon;timestamp;P1;durP1;ratioP1;P2;durP2;ratioP2
3891;SDS011;1961;48.194;16.370;2023-08-06T00:00:51;39.43;;;3.47;;
3891;SDS011;1961;48.194;16.370;2023-08-06T00:03:18;39.47;;;3.40;;
3891;SDS011;1961;48.194;16.370;2023-08-06T00:05:44;40.20;;;3.30;;
3891;SDS011;1961;48.194;16.370;2023-08-06T00:08:10;42.40;;;5.50;;
3891;SDS011;1961;48.194;16.370;2023-08-06T00:10:36;39.77;;;3.50;;
3891;SDS011;1961;48.194;16.370;2023-08-06T00:13:02;40.77;;;3.60;;
3891;SDS011;1961;48.194;16.370;2023-08-06T00:15:29;40.40;;;3.40;;
3891;SDS011;1961;48.194;16.370;2023-08-06T00:17:55;39.80;;;3.60;;
3891;SDS011;1961;48.194;16.370;2023-08-06T00:20:21;39.53;;;3.30;;
3891;SDS011;1961;48.194;16.370;2023-08-06T00:22:47;39.17;;;3.30;;
3891;SDS011;1961;48.194;16.370;2023-08-06T00:25:13;39.33;;;3.40;;
3891;SDS011;1961;48.194;16.370;2023-08-06T00:27:40;40.87;;;4.93;;
3891;SDS011;1961;48.194;16.370;2023-08-06T00:30:06;39.90;;;4.17;;
3891;SDS011;1961;48.194;16.370;2023-08-06T00:32:32;39.80;;;3.30;;
3891;SDS011;1961;48.194;16.370;2023-08-06T00:34:59;39.50;;;3.30;;
3891;SDS011;1961;48.194;16.370;2023-08-06T00:37:25;39.70;;;3.30;;
3891;SDS011;1961;48.194;16.370;2023-08-06T00:39:51;39.43;;;3.50;;
3891;SDS011;1961;48.194;16.370;2023-08-06T00:42:17;39.17;;;3.30;;
3891;SDS011;1961;48.194;16.370;2023-08-06T00:44:46;39.30;;;3.30;;
3891;SDS011;1961;48.194;16.370;2023-08-06T00:47:12;39.33;;;3.50;;
3891;SDS011;1961;48.194;16.370;2023-08-06T00:49:38;39.33;;;3.47;;
3891;SDS011;1961;48.194;16.370;2023-08-06T00:52:05;39.43;;;3.47;;
3891;SDS011;1961;48.194;16.370;2023-08-06T00:54:33;39.53;;;3.33;;
3891;SDS011;1961;48.194;16.370;2023-08-06T00:57:01;39.37;;;3.50;;
3891;SDS011;1961;48.194;16.370;2023-08-06T00:59:28;39.43;;;3.40;;
3891;SDS011;1961;48.194;16.370;2023-08-06T01:01:54;39.70;;;3.47;;
3891;SDS011;1961;48.194;16.370;2023-08-06T01:04:21;39.67;;;3.50;;
3891;SDS011;1961;48.194;16.370;2023-08-06T01:06:48;39.27;;;3.23;;
3891;SDS011;1961;48.194;16.370;2023-08-06T01:09:39;39.37;;;3.30;;
3891;SDS011;1961;48.194;16.370;2023-08-06T01:14:50;42.97;;;3.50;;
3891;SDS011;1961;48.194;16.370;2023-08-06T01:17:18;40.57;;;3.50;;
3891;SDS011;1961;48.194;16.370;2023-08-06T01:19:44;42.63;;;3.80;;
3891;SDS011;1961;48.194;16.370;2023-08-06T01:22:11;39.40;;;3.30;;
3891;SDS011;1961;48.194;16.370;2023-08-06T01:24:37;39.90;;;3.30;;
3891;SDS011;1961;48.194;16.370;2023-08-06T01:27:04;39.60;;;3.30;;
3891;SDS011;1961;48.194;16.370;2023-08-06T01:29:38;39.50;;;3.43;;
3891;SDS011;1961;48.194;16.370;2023-08-06T01:32:05;39.27;;;3.20;;
3891;SDS011;1961;48.194;16.370;2023-08-06T01:34:34;39.27;;;3.20;;
3891;SDS011;1961;48.194;16.370;2023-08-06T01:37:01;41.53;;;3.40;;
3891;SDS011;1961;48.194;16.370;2023-08-06T01:39:27;39.17;;;3.10;;
3891;SDS011;1961;48.194;16.370;2023-08-06T01:41:53;39.17;;;3.10;;
3891;SDS011;1961;48.194;16.370;2023-08-06T01:44:19;42.10;;;3.30;;
3891;SDS011;1961;48.194;16.370;2023-08-06T01:46:46;39.27;;;3.30;;
3891;SDS011;1961;48.194;16.370;2023-08-06T01:49:12;39.47;;;3.40;;
3891;SDS011;1961;48.194;16.370;2023-08-06T01:51:38;39.80;;;3.50;;
3891;SDS011;1961;48.194;16.370;2023-08-06T01:54:04;39.57;;;3.50;;
3891;SDS011;1961;48.194;16.370;2023-08-06T01:56:30;39.47;;;3.60;;
3891;SDS011;1961;48.194;16.370;2023-08-06T01:58:57;39.27;;;3.40;;
3891;SDS011;1961;48.194;16.370;2023-08-06T02:01:23;39.77;;;3.60;;
3891;SDS011;1961;48.194;16.370;2023-08-06T02:03:49;39.67;;;3.40;;
3891;SDS011;1961;48.194;16.370;2023-08-06T02:06:15;39.80;;;3.60;;
3891;SDS011;1961;48.194;16.370;2023-08-06T02:08:41;40.70;;;3.90;;
3891;SDS011;1961;48.194;16.370;2023-08-06T02:11:08;39.80;;;3.70;;
3891;SDS011;1961;48.194;16.370;2023-08-06T02:13:34;39.67;;;3.93;;
3891;SDS011;1961;48.194;16.370;2023-08-06T02:16:00;39.70;;;3.70;;
3891;SDS011;1961;48.194;16.370;2023-08-06T02:18:26;39.60;;;3.87;;
3891;SDS011;1961;48.194;16.370;2023-08-06T02:20:55;39.90;;;3.73;;
3891;SDS011;1961;48.194;16.370;2023-08-06T02:23:22;39.77;;;3.70;;
3891;SDS011;1961;48.194;16.370;2023-08-06T02:25:56;39.60;;;4.00;;
3891;SDS011;1961;48.194;16.370;2023-08-06T02:28:23;39.87;;;3.80;;
3891;SDS011;1961;48.194;16.370;2023-08-06T02:30:50;40.10;;;4.00;;
3891;SDS011;1961;48.194;16.370;2023-08-06T02:33:16;39.87;;;3.83;;
3891;SDS011;1961;48.194;16.370;2023-08-06T02:35:42;39.63;;;3.80;;
3891;SDS011;1961;48.194;16.370;2023-08-06T02:38:08;39.80;;;3.87;;
3891;SDS011;1961;48.194;16.370;2023-08-06T02:40:35;39.97;;;3.90;;
3891;SDS011;1961;48.194;16.370;2023-08-06T02:43:01;39.90;;;3.93;;
3891;SDS011;1961;48.194;16.370;2023-08-06T02:45:27;39.93;;;4.10;;
3891;SDS011;1961;48.194;16.370;2023-08-06T02:47:54;40.10;;;4.13;;
3891;SDS011;1961;48.194;16.370;2023-08-06T02:50:20;39.80;;;4.00;;
3891;SDS011;1961;48.194;16.370;2023-08-06T02:52:46;39.57;;;3.80;;
3891;SDS011;1961;48.194;16.370;2023-08-06T02:55:13;40.20;;;4.30;;
3891;SDS011;1961;48.194;16.370;2023-08-06T02:57:39;39.93;;;4.00;;
3891;SDS011;1961;48.194;16.370;2023-08-06T03:00:05;40.07;;;4.10;;
3891;SDS011;1961;48.194;16.370;2023-08-06T03:02:32;39.80;;;3.90;;
3891;SDS011;1961;48.194;16.370;2023-08-06T03:04:58;39.97;;;4.20;;
3891;SDS011;1961;48.194;16.370;2023-08-06T03:07:24;40.10;;;4.27;;
3891;SDS011;1961;48.194;16.370;2023-08-06T03:09:50;40.23;;;4.20;;
3891;SDS011;1961;48.194;16.370;2023-08-06T03:12:17;42.00;;;5.00;;
3891;SDS011;1961;48.194;16.370;2023-08-06T03:14:43;40.30;;;4.00;;
3891;SDS011;1961;48.194;16.370;2023-08-06T03:17:09;40.93;;;4.70;;
3891;SDS011;1961;48.194;16.370;2023-08-06T03:19:36;40.10;;;4.50;;
3891;SDS011;1961;48.194;16.370;2023-08-06T03:22:02;40.30;;;4.20;;
3891;SDS011;1961;48.194;16.370;2023-08-06T03:24:28;41.40;;;4.40;;
3891;SDS011;1961;48.194;16.370;2023-08-06T03:26:55;41.00;;;4.70;;
3891;SDS011;1961;48.194;16.370;2023-08-06T03:29:21;40.10;;;4.43;;
3891;SDS011;1961;48.194;16.370;2023-08-06T03:31:47;40.00;;;4.27;;
3891;SDS011;1961;48.194;16.370;2023-08-06T03:34:13;40.47;;;4.80;;
3891;SDS011;1961;48.194;16.370;2023-08-06T03:36:39;40.50;;;4.60;;
3891;SDS011;1961;48.194;16.370;2023-08-06T03:39:06;40.27;;;4.47;;
3891;SDS011;1961;48.194;16.370;2023-08-06T03:41:33;40.13;;;4.50;;
3891;SDS011;1961;48.194;16.370;2023-08-06T03:43:59;41.10;;;4.83;;
3891;SDS011;1961;48.194;16.370;2023-08-06T03:46:28;40.20;;;4.40;;
3891;SDS011;1961;48.194;16.370;2023-08-06T03:48:54;40.50;;;4.90;;
3891;SDS011;1961;48.194;16.370;2023-08-06T03:51:22;40.90;;;5.03;;
3891;SDS011;1961;48.194;16.370;2023-08-06T03:53:48;41.30;;;5.27;;
3891;SDS011;1961;48.194;16.370;2023-08-06T03:56:14;40.77;;;5.10;;
3891;SDS011;1961;48.194;16.370;2023-08-06T03:58:40;40.87;;;5.07;;
3891;SDS011;1961;48.194;16.370;2023-08-06T04:01:06;41.97;;;5.17;;
3891;SDS011;1961;48.194;16.370;2023-08-06T04:03:32;41.00;;;5.33;;
3891;SDS011;1961;48.194;16.370;2023-08-06T04:05:59;41.30;;;5.30;;
3891;SDS011;1961;48.194;16.370;2023-08-06T04:08:26;41.23;;;5.50;;
3891;SDS011;1961;48.194;16.370;2023-08-06T04:10:52;42.77;;;5.17;;
3891;SDS011;1961;48.194;16.370;2023-08-06T04:13:19;41.80;;;5.60;;
3891;SDS011;1961;48.194;16.370;2023-08-06T04:15:45;41.17;;;5.40;;
3891;SDS011;1961;48.194;16.370;2023-08-06T04:18:12;40.80;;;5.23;;
3891;SDS011;1961;48.194;16.370;2023-08-06T04:20:43;40.90;;;5.37;;
3891;SDS011;1961;48.194;16.370;2023-08-06T04:23:09;41.20;;;5.33;;
3891;SDS011;1961;48.194;16.370;2023-08-06T04:25:36;41.50;;;5.10;;
3891;SDS011;1961;48.194;16.370;2023-08-06T04:28:02;40.77;;;5.40;;
3891;SDS011;1961;48.194;16.370;2023-08-06T04:30:28;41.67;;;4.97;;
3891;SDS011;1961;48.194;16.370;2023-08-06T04:32:56;40.67;;;5.17;;
3891;SDS011;1961;48.194;16.370;2023-08-06T04:35:23;41.73;;;5.70;;
3891;SDS011;1961;48.194;16.370;2023-08-06T04:37:49;41.37;;;5.87;;
3891;SDS011;1961;48.194;16.370;2023-08-06T04:40:15;41.10;;;5.03;;
3891;SDS011;1961;48.194;16.370;2023-08-06T04:42:42;41.73;;;5.50;;
3891;SDS011;1961;48.194;16.370;2023-08-06T04:45:08;41.10;;;5.57;;
3891;SDS011;1961;48.194;16.370;2023-08-06T04:47:35;44.47;;;5.23;;
3891;SDS011;1961;48.194;16.370;2023-08-06T04:50:01;41.43;;;5.23;;
3891;SDS011;1961;48.194;16.370;2023-08-06T04:52:27;41.90;;;5.40;;
3891;SDS011;1961;48.194;16.370;2023-08-06T04:54:54;41.00;;;5.20;;
3891;SDS011;1961;48.194;16.370;2023-08-06T04:57:20;41.77;;;5.27;;
3891;SDS011;1961;48.194;16.370;2023-08-06T04:59:47;40.50;;;5.13;;
3891;SDS011;1961;48.194;16.370;2023-08-06T05:02:13;40.97;;;5.30;;
3891;SDS011;1961;48.194;16.370;2023-08-06T05:04:40;41.17;;;5.20;;
3891;SDS011;1961;48.194;16.370;2023-08-06T05:07:06;41.10;;;5.13;;
3891;SDS011;1961;48.194;16.370;2023-08-06T05:09:32;40.97;;;5.20;;
3891;SDS011;1961;48.194;16.370;2023-08-06T05:12:03;40.83;;;4.87;;
3891;SDS011;1961;48.194;16.370;2023-08-06T05:14:30;40.70;;;5.20;;
3891;SDS011;1961;48.194;16.370;2023-08-06T05:16:56;41.70;;;5.43;;
3891;SDS011;1961;48.194;16.370;2023-08-06T05:19:22;41.30;;;5.37;;
3891;SDS011;1961;48.194;16.370;2023-08-06T05:21:48;41.57;;;5.53;;
3891;SDS011;1961;48.194;16.370;2023-08-06T05:24:14;41.40;;;5.33;;
3891;SDS011;1961;48.194;16.370;2023-08-06T05:26:40;41.50;;;5.40;;
3891;SDS011;1961;48.194;16.370;2023-08-06T05:29:07;41.93;;;5.73;;
3891;SDS011;1961;48.194;16.370;2023-08-06T05:31:33;41.40;;;5.07;;
3891;SDS011;1961;48.194;16.370;2023-08-06T05:33:59;41.20;;;5.60;;
3891;SDS011;1961;48.194;16.370;2023-08-06T05:36:26;41.53;;;5.30;;
3891;SDS011;1961;48.194;16.370;2023-08-06T05:38:52;41.67;;;5.73;;
3891;SDS011;1961;48.194;16.370;2023-08-06T05:41:19;41.40;;;5.73;;
3891;SDS011;1961;48.194;16.370;2023-08-06T05:43:45;42.37;;;5.90;;
3891;SDS011;1961;48.194;16.370;2023-08-06T05:46:11;42.30;;;5.30;;
3891;SDS011;1961;48.194;16.370;2023-08-06T05:48:37;41.10;;;4.70;;
3891;SDS011;1961;48.194;16.370;2023-08-06T05:51:03;42.60;;;5.50;;
3891;SDS011;1961;48.194;16.370;2023-08-06T05:53:29;41.00;;;5.23;;
3891;SDS011;1961;48.194;16.370;2023-08-06T05:55:56;41.80;;;5.10;;
3891;SDS011;1961;48.194;16.370;2023-08-06T05:58:22;41.00;;;5.20;;
3891;SDS011;1961;48.194;16.370;2023-08-06T06:00:51;43.33;;;4.90;;
3891;SDS011;1961;48.194;16.370;2023-08-06T06:03:17;41.40;;;5.37;;
3891;SDS011;1961;48.194;16.370;2023-08-06T06:05:44;41.27;;;5.00;;
3891;SDS011;1961;48.194;16.370;2023-08-06T06:08:11;41.90;;;5.00;;
3891;SDS011;1961;48.194;16.370;2023-08-06T06:10:37;41.47;;;5.30;;
3891;SDS011;1961;48.194;16.370;2023-08-06T06:13:03;41.20;;;5.27;;
3891;SDS011;1961;48.194;16.370;2023-08-06T06:15:29;40.93;;;5.03;;
3891;SDS011;1961;48.194;16.370;2023-08-06T06:17:55;42.03;;;5.20;;
3891;SDS011;1961;48.194;16.370;2023-08-06T06:20:22;40.50;;;4.90;;
3891;SDS011;1961;48.194;16.370;2023-08-06T06:22:48;41.30;;;5.73;;
3891;SDS011;1961;48.194;16.370;2023-08-06T06:25:14;42.37;;;5.57;;
3891;SDS011;1961;48.194;16.370;2023-08-06T06:27:41;41.23;;;5.17;;
3891;SDS011;1961;48.194;16.370;2023-08-06T06:30:07;40.77;;;4.73;;
3891;SDS011;1961;48.194;16.370;2023-08-06T06:32:34;40.23;;;4.87;;
3891;SDS011;1961;48.194;16.370;2023-08-06T06:35:00;41.10;;;5.43;;
3891;SDS011;1961;48.194;16.370;2023-08-06T06:37:26;40.83;;;5.10;;
3891;SDS011;1961;48.194;16.370;2023-08-06T06:39:53;40.37;;;4.73;;
3891;SDS011;1961;48.194;16.370;2023-08-06T06:42:19;40.87;;;5.17;;
3891;SDS011;1961;48.194;16.370;2023-08-06T06:44:45;40.70;;;5.03;;
3891;SDS011;1961;48.194;16.370;2023-08-06T06:47:12;41.97;;;5.23;;
3891;SDS011;1961;48.194;16.370;2023-08-06T06:49:38;41.00;;;5.20;;
3891;SDS011;1961;48.194;16.370;2023-08-06T06:52:04;41.20;;;5.50;;
3891;SDS011;1961;48.194;16.370;2023-08-06T06:54:31;40.80;;;5.10;;
3891;SDS011;1961;48.194;16.370;2023-08-06T06:56:57;41.07;;;5.30;;
3891;SDS011;1961;48.194;16.370;2023-08-06T06:59:23;40.70;;;4.93;;
3891;SDS011;1961;48.194;16.370;2023-08-06T07:01:49;41.20;;;5.40;;
3891;SDS011;1961;48.194;16.370;2023-08-06T07:04:15;40.90;;;5.40;;
3891;SDS011;1961;48.194;16.370;2023-08-06T07:06:41;41.10;;;5.23;;
3891;SDS011;1961;48.194;16.370;2023-08-06T07:09:08;41.93;;;5.37;;
3891;SDS011;1961;48.194;16.370;2023-08-06T07:11:34;41.00;;;5.13;;
3891;SDS011;1961;48.194;16.370;2023-08-06T07:14:00;41.00;;;5.80;;
3891;SDS011;1961;48.194;16.370;2023-08-06T07:16:26;40.23;;;4.80;;
3891;SDS011;1961;48.194;16.370;2023-08-06T07:18:54;40.40;;;4.87;;
3891;SDS011;1961;48.194;16.370;2023-08-06T07:21:20;40.93;;;5.03;;
3891;SDS011;1961;48.194;16.370;2023-08-06T07:23:47;40.40;;;4.73;;
3891;SDS011;1961;48.194;16.370;2023-08-06T07:26:15;41.87;;;5.43;;
3891;SDS011;1961;48.194;16.370;2023-08-06T07:28:41;40.70;;;5.30;;
3891;SDS011;1961;48.194;16.370;2023-08-06T07:31:07;40.80;;;5.30;;
3891;SDS011;1961;48.194;16.370;2023-08-06T07:33:34;42.37;;;6.40;;
3891;SDS011;1961;48.194;16.370;2023-08-06T07:36:07;40.47;;;5.00;;
3891;SDS011;1961;48.194;16.370;2023-08-06T07:38:33;41.10;;;5.13;;
3891;SDS011;1961;48.194;16.370;2023-08-06T07:41:01;40.57;;;5.30;;
3891;SDS011;1961;48.194;16.370;2023-08-06T07:43:27;41.17;;;5.40;;
3891;SDS011;1961;48.194;16.370;2023-08-06T07:45:53;41.30;;;5.90;;
3891;SDS011;1961;48.194;16.370;2023-08-06T07:48:19;41.40;;;5.40;;
3891;SDS011;1961;48.194;16.370;2023-08-06T07:50:46;41.60;;;5.40;;
3891;SDS011;1961;48.194;16.370;2023-08-06T07:53:15;40.87;;;5.30;;
3891;SDS011;1961;48.194;16.370;2023-08-06T07:55:41;41.00;;;5.37;;
3891;SDS011;1961;48.194;16.370;2023-08-06T07:58:08;40.97;;;5.17;;
3891;SDS011;1961;48.194;16.370;2023-08-06T08:00:34;40.63;;;5.10;;
3891;SDS011;1961;48.194;16.370;2023-08-06T08:03:00;41.77;;;5.80;;
3891;SDS011;1961;48.194;16.370;2023-08-06T08:05:26;43.20;;;5.93;;
3891;SDS011;1961;48.194;16.370;2023-08-06T08:07:52;40.80;;;5.00;;
3891;SDS011;1961;48.194;16.370;2023-08-06T08:10:19;40.87;;;5.17;;
3891;SDS011;1961;48.194;16.370;2023-08-06T08:12:45;40.47;;;5.03;;
3891;SDS011;1961;48.194;16.370;2023-08-06T08:15:12;40.83;;;5.10;;
3891;SDS011;1961;48.194;16.370;2023-08-06T08:17:39;41.63;;;5.60;;
3891;SDS011;1961;48.194;16.370;2023-08-06T08:20:05;41.20;;;5.43;;
3891;SDS011;1961;48.194;16.370;2023-08-06T08:22:31;41.23;;;5.60;;
3891;SDS011;1961;48.194;16.370;2023-08-06T08:24:57;41.07;;;5.80;;
3891;SDS011;1961;48.194;16.370;2023-08-06T08:27:24;41.17;;;5.30;;
3891;SDS011;1961;48.194;16.370;2023-08-06T08:29:51;41.23;;;5.80;;
3891;SDS011;1961;48.194;16.370;2023-08-06T08:32:17;40.90;;;5.30;;
3891;SDS011;1961;48.194;16.370;2023-08-06T08:34:44;41.43;;;5.50;;
3891;SDS011;1961;48.194;16.370;2023-08-06T08:37:10;41.27;;;5.67;;
3891;SDS011;1961;48.194;16.370;2023-08-06T08:39:36;41.27;;;5.80;;
3891;SDS011;1961;48.194;16.370;2023-08-06T08:42:03;42.10;;;5.87;;
3891;SDS011;1961;48.194;16.370;2023-08-06T08:44:29;41.30;;;5.57;;
3891;SDS011;1961;48.194;16.370;2023-08-06T08:46:57;40.60;;;5.20;;
3891;SDS011;1961;48.194;16.370;2023-08-06T08:49:23;41.67;;;6.20;;
3891;SDS011;1961;48.194;16.370;2023-08-06T08:51:50;43.03;;;5.70;;
3891;SDS011;1961;48.194;16.370;2023-08-06T08:54:18;42.23;;;6.10;;
3891;SDS011;1961;48.194;16.370;2023-08-06T08:56:46;40.87;;;5.43;;
3891;SDS011;1961;48.194;16.370;2023-08-06T08:59:12;40.97;;;5.53;;
3891;SDS011;1961;48.194;16.370;2023-08-06T09:01:38;41.97;;;5.77;;
3891;SDS011;1961;48.194;16.370;2023-08-06T09:04:05;41.27;;;5.53;;
3891;SDS011;1961;48.194;16.370;2023-08-06T09:06:33;41.80;;;5.97;;
3891;SDS011;1961;48.194;16.370;2023-08-06T09:09:01;41.40;;;5.60;;
3891;SDS011;1961;48.194;16.370;2023-08-06T09:11:30;41.50;;;6.23;;
3891;SDS011;1961;48.194;16.370;2023-08-06T09:14:05;41.67;;;6.23;;
3891;SDS011;1961;48.194;16.370;2023-08-06T09:16:36;41.47;;;6.13;;
3891;SDS011;1961;48.194;16.370;2023-08-06T09:19:12;43.87;;;6.40;;
3891;SDS011;1961;48.194;16.370;2023-08-06T09:21:41;42.70;;;6.93;;
3891;SDS011;1961;48.194;16.370;2023-08-06T09:24:11;41.80;;;6.50;;
3891;SDS011;1961;48.194;16.370;2023-08-06T09:26:41;43.30;;;7.00;;
3891;SDS011;1961;48.194;16.370;2023-08-06T09:29:08;42.60;;;6.70;;
3891;SDS011;1961;48.194;16.370;2023-08-06T09:31:40;42.60;;;6.50;;
3891;SDS011;1961;48.194;16.370;2023-08-06T09:34:25;43.10;;;7.03;;
3891;SDS011;1961;48.194;16.370;2023-08-06T09:36:51;44.57;;;6.80;;
3891;SDS011;1961;48.194;16.370;2023-08-06T09:39:24;43.07;;;6.30;;
3891;SDS011;1961;48.194;16.370;2023-08-06T09:41:52;42.07;;;6.70;;
3891;SDS011;1961;48.194;16.370;2023-08-06T09:44:21;42.60;;;6.67;;
3891;SDS011;1961;48.194;16.370;2023-08-06T09:46:51;44.83;;;6.57;;
3891;SDS011;1961;48.194;16.370;2023-08-06T09:49:18;42.10;;;6.27;;
3891;SDS011;1961;48.194;16.370;2023-08-06T09:51:46;42.93;;;6.50;;
3891;SDS011;1961;48.194;16.370;2023-08-06T09:54:16;42.07;;;7.07;;
3891;SDS011;1961;48.194;16.370;2023-08-06T09:56:44;41.90;;;6.70;;
3891;SDS011;1961;48.194;16.370;2023-08-06T09:59:10;42.13;;;7.03;;
3891;SDS011;1961;48.194;16.370;2023-08-06T10:01:36;42.27;;;6.30;;
3891;SDS011;1961;48.194;16.370;2023-08-06T10:04:03;42.10;;;6.10;;
3891;SDS011;1961;48.194;16.370;2023-08-06T10:06:31;41.23;;;5.90;;
3891;SDS011;1961;48.194;16.370;2023-08-06T10:09:00;45.67;;;9.13;;
3891;SDS011;1961;48.194;16.370;2023-08-06T10:11:26;45.67;;;7.83;;
3891;SDS011;1961;48.194;16.370;2023-08-06T10:13:54;41.00;;;5.60;;
3891;SDS011;1961;48.194;16.370;2023-08-06T10:16:21;41.70;;;6.03;;
3891;SDS011;1961;48.194;16.370;2023-08-06T10:18:48;41.63;;;5.97;;
3891;SDS011;1961;48.194;16.370;2023-08-06T10:21:15;44.10;;;6.87;;
3891;SDS011;1961;48.194;16.370;2023-08-06T10:23:41;42.40;;;6.20;;
3891;SDS011;1961;48.194;16.370;2023-08-06T10:26:07;43.40;;;7.20;;
3891;SDS011;1961;48.194;16.370;2023-08-06T10:28:33;42.10;;;6.80;;
3891;SDS011;1961;48.194;16.370;2023-08-06T10:31:01;42.40;;;6.57;;
3891;SDS011;1961;48.194;16.370;2023-08-06T10:33:42;42.23;;;6.70;;
3891;SDS011;1961;48.194;16.370;2023-08-06T10:36:09;41.40;;;6.30;;
3891;SDS011;1961;48.194;16.370;2023-08-06T10:38:43;42.50;;;6.40;;
3891;SDS011;1961;48.194;16.370;2023-08-06T10:41:14;43.93;;;6.43;;
3891;SDS011;1961;48.194;16.370;2023-08-06T10:43:41;42.17;;;6.33;;
3891;SDS011;1961;48.194;16.370;2023-08-06T10:46:10;42.77;;;6.53;;
3891;SDS011;1961;48.194;16.370;2023-08-06T10:48:40;41.77;;;6.50;;
3891;SDS011;1961;48.194;16.370;2023-08-06T10:51:10;44.00;;;7.40;;
3891;SDS011;1961;48.194;16.370;2023-08-06T10:53:36;43.23;;;7.20;;
3891;SDS011;1961;48.194;16.370;2023-08-06T10:56:13;42.27;;;6.90;;
3891;SDS011;1961;48.194;16.370;2023-08-06T10:58:39;44.77;;;7.47;;
3891;SDS011;1961;48.194;16.370;2023-08-06T11:01:06;43.17;;;7.10;;
3891;SDS011;1961;48.194;16.370;2023-08-06T11:03:35;43.30;;;6.93;;
3891;SDS011;1961;48.194;16.370;2023-08-06T11:06:01;43.10;;;7.00;;
3891;SDS011;1961;48.194;16.370;2023-08-06T11:08:28;42.37;;;6.47;;
3891;SDS011;1961;48.194;16.370;2023-08-06T11:10:55;42.57;;;7.10;;
3891;SDS011;1961;48.194;16.370;2023-08-06T11:13:22;42.20;;;7.00;;
3891;SDS011;1961;48.194;16.370;2023-08-06T11:15:51;43.37;;;6.90;;
3891;SDS011;1961;48.194;16.370;2023-08-06T11:18:19;42.70;;;6.93;;
3891;SDS011;1961;48.194;16.370;2023-08-06T11:20:45;42.70;;;7.00;;
3891;SDS011;1961;48.194;16.370;2023-08-06T11:23:11;42.87;;;6.87;;
3891;SDS011;1961;48.194;16.370;2023-08-06T11:25:43;44.13;;;6.47;;
3891;SDS011;1961;48.194;16.370;2023-08-06T11:28:10;42.30;;;6.80;;
3891;SDS011;1961;48.194;16.370;2023-08-06T11:30:37;41.90;;;6.53;;
3891;SDS011;1961;48.194;16.370;2023-08-06T11:33:06;43.70;;;6.93;;
3891;SDS011;1961;48.194;16.370;2023-08-06T11:35:35;42.80;;;6.90;;
3891;SDS011;1961;48.194;16.370;2023-08-06T11:38:02;41.90;;;6.27;;
3891;SDS011;1961;48.194;16.370;2023-08-06T11:40:28;41.70;;;6.53;;
3891;SDS011;1961;48.194;16.370;2023-08-06T11:42:54;43.00;;;7.43;;
3891;SDS011;1961;48.194;16.370;2023-08-06T11:45:24;42.50;;;7.07;;
3891;SDS011;1961;48.194;16.370;2023-08-06T11:47:51;42.77;;;7.13;;
3891;SDS011;1961;48.194;16.370;2023-08-06T11:50:24;42.30;;;6.80;;
3891;SDS011;1961;48.194;16.370;2023-08-06T11:52:57;43.10;;;6.77;;
3891;SDS011;1961;48.194;16.370;2023-08-06T11:55:25;42.47;;;6.80;;
3891;SDS011;1961;48.194;16.370;2023-08-06T11:57:53;41.90;;;6.40;;
3891;SDS011;1961;48.194;16.370;2023-08-06T12:00:22;42.60;;;6.77;;
3891;SDS011;1961;48.194;16.370;2023-08-06T12:02:48;45.30;;;7.37;;
3891;SDS011;1961;48.194;16.370;2023-08-06T12:05:17;42.73;;;7.00;;
3891;SDS011;1961;48.194;16.370;2023-08-06T12:07:49;46.50;;;7.63;;
3891;SDS011;1961;48.194;16.370;2023-08-06T12:10:16;42.93;;;6.43;;
3891;SDS011;1961;48.194;16.370;2023-08-06T12:12:44;41.70;;;6.73;;
3891;SDS011;1961;48.194;16.370;2023-08-06T12:15:11;42.90;;;7.30;;
3891;SDS011;1961;48.194;16.370;2023-08-06T12:17:37;43.03;;;7.30;;
3891;SDS011;1961;48.194;16.370;2023-08-06T12:20:04;43.00;;;6.87;;
3891;SDS011;1961;48.194;16.370;2023-08-06T12:22:31;43.17;;;6.90;;
3891;SDS011;1961;48.194;16.370;2023-08-06T12:25:04;43.13;;;7.57;;
3891;SDS011;1961;48.194;16.370;2023-08-06T12:27:37;43.00;;;7.23;;
3891;SDS011;1961;48.194;16.370;2023-08-06T12:30:04;42.33;;;7.00;;
3891;SDS011;1961;48.194;16.370;2023-08-06T12:32:31;42.33;;;6.57;;
3891;SDS011;1961;48.194;16.370;2023-08-06T12:34:57;42.60;;;7.17;;
3891;SDS011;1961;48.194;16.370;2023-08-06T12:37:24;42.57;;;7.10;;
3891;SDS011;1961;48.194;16.370;2023-08-06T12:39:51;44.67;;;7.40;;
3891;SDS011;1961;48.194;16.370;2023-08-06T12:42:17;43.30;;;6.63;;
3891;SDS011;1961;48.194;16.370;2023-08-06T12:44:43;42.80;;;7.00;;
3891;SDS011;1961;48.194;16.370;2023-08-06T12:47:09;44.20;;;6.83;;
3891;SDS011;1961;48.194;16.370;2023-08-06T12:49:36;42.47;;;7.17;;
3891;SDS011;1961;48.194;16.370;2023-08-06T12:52:02;42.47;;;6.80;;
3891;SDS011;1961;48.194;16.370;2023-08-06T12:54:31;44.57;;;7.27;;
3891;SDS011;1961;48.194;16.370;2023-08-06T12:57:02;42.77;;;7.10;;
3891;SDS011;1961;48.194;16.370;2023-08-06T12:59:28;45.13;;;7.13;;
3891;SDS011;1961;48.194;16.370;2023-08-06T13:01:55;43.00;;;6.93;;
3891;SDS011;1961;48.194;16.370;2023-08-06T13:04:22;42.70;;;6.43;;
3891;SDS011;1961;48.194;16.370;2023-08-06T13:06:48;43.37;;;7.20;;
3891;SDS011;1961;48.194;16.370;2023-08-06T13:09:15;43.50;;;7.70;;
3891;SDS011;1961;48.194;16.370;2023-08-06T13:11:42;43.50;;;7.27;;
3891;SDS011;1961;48.194;16.370;2023-08-06T13:14:12;42.43;;;7.23;;
3891;SDS011;1961;48.194;16.370;2023-08-06T13:16:40;46.80;;;7.30;;
3891;SDS011;1961;48.194;16.370;2023-08-06T13:19:06;45.07;;;7.30;;
3891;SDS011;1961;48.194;16.370;2023-08-06T13:21:34;44.37;;;7.30;;
3891;SDS011;1961;48.194;16.370;2023-08-06T13:24:01;46.03;;;7.03;;
3891;SDS011;1961;48.194;16.370;2023-08-06T13:26:31;43.07;;;7.30;;
3891;SDS011;1961;48.194;16.370;2023-08-06T13:28:57;43.43;;;7.73;;
3891;SDS011;1961;48.194;16.370;2023-08-06T13:31:25;44.10;;;6.53;;
3891;SDS011;1961;48.194;16.370;2023-08-06T13:33:52;43.23;;;6.90;;
3891;SDS011;1961;48.194;16.370;2023-08-06T13:36:21;41.63;;;6.00;;
3891;SDS011;1961;48.194;16.370;2023-08-06T13:38:48;43.67;;;6.03;;
3891;SDS011;1961;48.194;16.370;2023-08-06T13:41:15;42.30;;;6.50;;
3891;SDS011;1961;48.194;16.370;2023-08-06T13:43:42;42.17;;;6.17;;
3891;SDS011;1961;48.194;16.370;2023-08-06T13:46:09;42.47;;;6.70;;
3891;SDS011;1961;48.194;16.370;2023-08-06T13:48:41;41.97;;;6.27;;
3891;SDS011;1961;48.194;16.370;2023-08-06T13:51:07;43.17;;;6.80;;
3891;SDS011;1961;48.194;16.370;2023-08-06T13:53:34;42.67;;;6.40;;
3891;SDS011;1961;48.194;16.370;2023-08-06T13:56:00;42.70;;;6.37;;
3891;SDS011;1961;48.194;16.370;2023-08-06T13:58:26;41.87;;;6.17;;
3891;SDS011;1961;48.194;16.370;2023-08-06T14:00:53;42.90;;;7.00;;
3891;SDS011;1961;48.194;16.370;2023-08-06T14:03:20;42.40;;;6.67;;
3891;SDS011;1961;48.194;16.370;2023-08-06T14:05:47;43.60;;;6.63;;
3891;SDS011;1961;48.194;16.370;2023-08-06T14:08:14;44.87;;;6.60;;
3891;SDS011;1961;48.194;16.370;2023-08-06T14:10:44;41.53;;;5.60;;
3891;SDS011;1961;48.194;16.370;2023-08-06T14:13:13;44.70;;;6.00;;
3891;SDS011;1961;48.194;16.370;2023-08-06T14:15:39;41.77;;;5.50;;
3891;SDS011;1961;48.194;16.370;2023-08-06T14:18:09;41.73;;;5.10;;
3891;SDS011;1961;48.194;16.370;2023-08-06T14:20:35;41.77;;;4.80;;
3891;SDS011;1961;48.194;16.370;2023-08-06T14:23:01;41.80;;;4.60;;
3891;SDS011;1961;48.194;16.370;2023-08-06T14:25:27;43.40;;;4.33;;
3891;SDS011;1961;48.194;16.370;2023-08-06T14:27:54;40.07;;;3.87;;
3891;SDS011;1961;48.194;16.370;2023-08-06T14:30:20;41.40;;;4.00;;
3891;SDS011;1961;48.194;16.370;2023-08-06T14:32:47;40.23;;;4.10;;
3891;SDS011;1961;48.194;16.370;2023-08-06T14:35:13;40.67;;;4.10;;
3891;SDS011;1961;48.194;16.370;2023-08-06T14:37:40;40.27;;;3.83;;
3891;SDS011;1961;48.194;16.370;2023-08-06T14:40:07;39.97;;;3.70;;
3891;SDS011;1961;48.194;16.370;2023-08-06T14:42:34;40.17;;;4.00;;
3891;SDS011;1961;48.194;16.370;2023-08-06T14:45:00;40.27;;;3.80;;
3891;SDS011;1961;48.194;16.370;2023-08-06T14:47:27;40.97;;;3.97;;
3891;SDS011;1961;48.194;16.370;2023-08-06T14:49:53;40.30;;;4.00;;